sensor_id;sensor_type;location;lat;lon;timestamp;P1;durP1;ratioP1;P2;durP2;ratioP2
6809;SDS011;3443;48.812;9.112;2024-01-10T00:01:23;17.30;;;12.40;;
6809;SDS011;3443;48.812;9.112;2024-01-10T00:03:55;15.10;;;12.20;;
6809;SDS011;3443;48.812;9.112;2024-01-10T00:06:21;15.47;;;12.43;;
6809;SDS011;3443;48.812;9.112;2024-01-10T00:08:48;13.07;;;11.57;;
6809;SDS011;3443;48.812;9.112;2024-01-10T00:11:14;13.17;;;10.97;;
6809;SDS011;3443;48.812;9.112;2024-01-10T00:13:40;14.27;;;11.60;;
6809;SDS011;3443;48.812;9.112;2024-01-10T00:16:06;15.83;;;11.77;;
6809;SDS011;3443;48.812;9.112;2024-01-10T00:18:32;15.30;;;12.10;;
6809;SDS011;3443;48.812;9.112;2024-01-10T00:20:58;14.67;;;11.77;;
6809;SDS011;3443;48.812;9.112;2024-01-10T00:23:24;14.77;;;11.77;;
6809;SDS011;3443;48.812;9.112;2024-01-10T00:25:50;12.43;;;10.70;;
6809;SDS011;3443;48.812;9.112;2024-01-10T00:28:16;14.73;;;11.43;;
6809;SDS011;3443;48.812;9.112;2024-01-10T00:30:43;14.93;;;11.37;;
6809;SDS011;3443;48.812;9.112;2024-01-10T00:33:09;16.37;;;12.73;;
6809;SDS011;3443;48.812;9.112;2024-01-10T00:35:36;14.23;;;11.60;;
6809;SDS011;3443;48.812;9.112;2024-01-10T00:38:02;15.13;;;12.37;;
6809;SDS011;3443;48.812;9.112;2024-01-10T00:40:28;16.97;;;12.43;;
6809;SDS011;3443;48.812;9.112;2024-01-10T00:42:55;15.73;;;12.00;;
6809;SDS011;3443;48.812;9.112;2024-01-10T00:45:21;15.03;;;12.10;;
6809;SDS011;3443;48.812;9.112;2024-01-10T00:47:50;17.17;;;13.53;;
6809;SDS011;3443;48.812;9.112;2024-01-10T00:50:16;16.83;;;13.53;;
6809;SDS011;3443;48.812;9.112;2024-01-10T00:52:43;20.87;;;16.03;;
6809;SDS011;3443;48.812;9.112;2024-01-10T00:55:09;17.33;;;13.50;;
6809;SDS011;3443;48.812;9.112;2024-01-10T00:57:35;18.07;;;13.80;;
6809;SDS011;3443;48.812;9.112;2024-01-10T01:00:03;16.00;;;12.87;;
6809;SDS011;3443;48.812;9.112;2024-01-10T01:02:29;18.80;;;13.70;;
6809;SDS011;3443;48.812;9.112;2024-01-10T01:04:55;16.43;;;13.40;;
6809;SDS011;3443;48.812;9.112;2024-01-10T01:07:21;14.93;;;12.70;;
6809;SDS011;3443;48.812;9.112;2024-01-10T01:09:47;16.27;;;12.63;;
6809;SDS011;3443;48.812;9.112;2024-01-10T01:12:13;15.93;;;13.40;;
6809;SDS011;3443;48.812;9.112;2024-01-10T01:14:39;14.57;;;11.70;;
6809;SDS011;3443;48.812;9.112;2024-01-10T01:17:05;14.87;;;12.50;;
6809;SDS011;3443;48.812;9.112;2024-01-10T01:19:31;14.37;;;11.73;;
6809;SDS011;3443;48.812;9.112;2024-01-10T01:21:57;13.37;;;11.90;;
6809;SDS011;3443;48.812;9.112;2024-01-10T01:24:23;16.87;;;12.13;;
6809;SDS011;3443;48.812;9.112;2024-01-10T01:26:49;13.30;;;11.47;;
6809;SDS011;3443;48.812;9.112;2024-01-10T01:29:15;16.40;;;12.27;;
6809;SDS011;3443;48.812;9.112;2024-01-10T01:31:41;15.40;;;12.23;;
6809;SDS011;3443;48.812;9.112;2024-01-10T01:34:07;15.33;;;12.17;;
6809;SDS011;3443;48.812;9.112;2024-01-10T01:36:33;15.63;;;12.03;;
6809;SDS011;3443;48.812;9.112;2024-01-10T01:38:59;18.47;;;14.47;;
6809;SDS011;3443;48.812;9.112;2024-01-10T01:41:25;16.90;;;13.47;;
6809;SDS011;3443;48.812;9.112;2024-01-10T01:43:51;17.77;;;13.27;;
6809;SDS011;3443;48.812;9.112;2024-01-10T01:46:17;17.03;;;12.33;;
6809;SDS011;3443;48.812;9.112;2024-01-10T01:48:43;15.67;;;11.73;;
6809;SDS011;3443;48.812;9.112;2024-01-10T01:51:11;15.43;;;12.63;;
6809;SDS011;3443;48.812;9.112;2024-01-10T01:53:38;13.53;;;11.73;;
6809;SDS011;3443;48.812;9.112;2024-01-10T01:56:07;18.10;;;12.33;;
6809;SDS011;3443;48.812;9.112;2024-01-10T01:58:35;15.33;;;11.87;;
6809;SDS011;3443;48.812;9.112;2024-01-10T02:01:02;17.60;;;12.47;;
6809;SDS011;3443;48.812;9.112;2024-01-10T02:03:29;15.60;;;12.30;;
6809;SDS011;3443;48.812;9.112;2024-01-10T02:05:55;15.37;;;11.90;;
6809;SDS011;3443;48.812;9.112;2024-01-10T02:08:21;15.87;;;11.70;;
6809;SDS011;3443;48.812;9.112;2024-01-10T02:10:47;15.97;;;12.43;;
6809;SDS011;3443;48.812;9.112;2024-01-10T02:13:13;15.23;;;11.57;;
6809;SDS011;3443;48.812;9.112;2024-01-10T02:15:39;13.80;;;11.07;;
6809;SDS011;3443;48.812;9.112;2024-01-10T02:18:05;17.00;;;12.50;;
6809;SDS011;3443;48.812;9.112;2024-01-10T02:20:31;16.10;;;11.57;;
6809;SDS011;3443;48.812;9.112;2024-01-10T02:22:57;14.50;;;11.40;;
6809;SDS011;3443;48.812;9.112;2024-01-10T02:25:23;14.63;;;11.33;;
6809;SDS011;3443;48.812;9.112;2024-01-10T02:27:49;15.73;;;11.63;;
6809;SDS011;3443;48.812;9.112;2024-01-10T02:30:15;18.67;;;11.77;;
6809;SDS011;3443;48.812;9.112;2024-01-10T02:32:41;12.77;;;10.67;;
6809;SDS011;3443;48.812;9.112;2024-01-10T02:35:07;15.97;;;11.60;;
6809;SDS011;3443;48.812;9.112;2024-01-10T02:37:33;14.10;;;11.57;;
6809;SDS011;3443;48.812;9.112;2024-01-10T02:39:59;15.90;;;11.10;;
6809;SDS011;3443;48.812;9.112;2024-01-10T02:42:28;17.27;;;11.77;;
6809;SDS011;3443;48.812;9.112;2024-01-10T02:44:55;14.23;;;11.23;;
6809;SDS011;3443;48.812;9.112;2024-01-10T02:47:21;14.57;;;11.57;;
6809;SDS011;3443;48.812;9.112;2024-01-10T02:49:47;14.87;;;11.33;;
6809;SDS011;3443;48.812;9.112;2024-01-10T02:52:13;13.53;;;10.60;;
6809;SDS011;3443;48.812;9.112;2024-01-10T02:54:39;14.63;;;11.60;;
6809;SDS011;3443;48.812;9.112;2024-01-10T02:57:05;14.07;;;11.23;;
6809;SDS011;3443;48.812;9.112;2024-01-10T02:59:31;14.03;;;11.47;;
6809;SDS011;3443;48.812;9.112;2024-01-10T03:01:57;14.77;;;11.60;;
6809;SDS011;3443;48.812;9.112;2024-01-10T03:04:23;16.40;;;11.90;;
6809;SDS011;3443;48.812;9.112;2024-01-10T03:06:49;13.30;;;11.00;;
6809;SDS011;3443;48.812;9.112;2024-01-10T03:09:15;13.83;;;11.23;;
6809;SDS011;3443;48.812;9.112;2024-01-10T03:11:41;15.70;;;12.10;;
6809;SDS011;3443;48.812;9.112;2024-01-10T03:14:07;16.07;;;12.17;;
6809;SDS011;3443;48.812;9.112;2024-01-10T03:16:34;14.77;;;11.97;;
6809;SDS011;3443;48.812;9.112;2024-01-10T03:19:00;16.90;;;12.00;;
6809;SDS011;3443;48.812;9.112;2024-01-10T03:21:26;14.37;;;11.27;;
6809;SDS011;3443;48.812;9.112;2024-01-10T03:23:52;13.83;;;11.27;;
6809;SDS011;3443;48.812;9.112;2024-01-10T03:26:19;15.77;;;11.63;;
6809;SDS011;3443;48.812;9.112;2024-01-10T03:28:45;14.87;;;11.93;;
6809;SDS011;3443;48.812;9.112;2024-01-10T03:31:11;13.17;;;10.77;;
6809;SDS011;3443;48.812;9.112;2024-01-10T03:33:43;14.80;;;11.27;;
6809;SDS011;3443;48.812;9.112;2024-01-10T03:36:11;12.83;;;10.97;;
6809;SDS011;3443;48.812;9.112;2024-01-10T03:38:37;31.60;;;23.97;;
6809;SDS011;3443;48.812;9.112;2024-01-10T03:41:03;34.13;;;24.13;;
6809;SDS011;3443;48.812;9.112;2024-01-10T03:43:29;20.80;;;15.03;;
6809;SDS011;3443;48.812;9.112;2024-01-10T03:45:55;15.13;;;12.40;;
6809;SDS011;3443;48.812;9.112;2024-01-10T03:48:22;15.60;;;11.93;;
6809;SDS011;3443;48.812;9.112;2024-01-10T03:50:48;14.73;;;12.07;;
6809;SDS011;3443;48.812;9.112;2024-01-10T03:53:14;16.07;;;12.37;;
6809;SDS011;3443;48.812;9.112;2024-01-10T03:55:40;15.67;;;12.27;;
6809;SDS011;3443;48.812;9.112;2024-01-10T03:58:06;16.03;;;12.87;;
6809;SDS011;3443;48.812;9.112;2024-01-10T04:00:32;18.83;;;13.80;;
6809;SDS011;3443;48.812;9.112;2024-01-10T04:02:58;16.70;;;12.80;;
6809;SDS011;3443;48.812;9.112;2024-01-10T04:05:24;17.27;;;12.03;;
6809;SDS011;3443;48.812;9.112;2024-01-10T04:07:51;15.60;;;11.70;;
6809;SDS011;3443;48.812;9.112;2024-01-10T04:10:17;15.43;;;11.73;;
6809;SDS011;3443;48.812;9.112;2024-01-10T04:12:44;13.13;;;10.93;;
6809;SDS011;3443;48.812;9.112;2024-01-10T04:15:10;16.17;;;12.10;;
6809;SDS011;3443;48.812;9.112;2024-01-10T04:17:36;13.57;;;11.20;;
6809;SDS011;3443;48.812;9.112;2024-01-10T04:20:03;14.33;;;11.70;;
6809;SDS011;3443;48.812;9.112;2024-01-10T04:22:30;14.97;;;11.37;;
6809;SDS011;3443;48.812;9.112;2024-01-10T04:24:59;14.10;;;10.63;;
6809;SDS011;3443;48.812;9.112;2024-01-10T04:27:26;15.97;;;11.33;;
6809;SDS011;3443;48.812;9.112;2024-01-10T04:29:52;12.37;;;10.97;;
6809;SDS011;3443;48.812;9.112;2024-01-10T04:32:18;13.83;;;11.53;;
6809;SDS011;3443;48.812;9.112;2024-01-10T04:34:44;15.50;;;11.60;;
6809;SDS011;3443;48.812;9.112;2024-01-10T04:37:10;13.70;;;11.00;;
6809;SDS011;3443;48.812;9.112;2024-01-10T04:39:36;13.70;;;10.93;;
6809;SDS011;3443;48.812;9.112;2024-01-10T04:42:07;14.83;;;11.57;;
6809;SDS011;3443;48.812;9.112;2024-01-10T04:44:33;14.97;;;11.67;;
6809;SDS011;3443;48.812;9.112;2024-01-10T04:46:59;16.07;;;11.37;;
6809;SDS011;3443;48.812;9.112;2024-01-10T04:49:25;16.23;;;11.37;;
6809;SDS011;3443;48.812;9.112;2024-01-10T04:51:51;14.23;;;11.27;;
6809;SDS011;3443;48.812;9.112;2024-01-10T04:54:17;13.33;;;10.77;;
6809;SDS011;3443;48.812;9.112;2024-01-10T04:56:43;15.67;;;11.60;;
6809;SDS011;3443;48.812;9.112;2024-01-10T04:59:09;17.27;;;12.00;;
6809;SDS011;3443;48.812;9.112;2024-01-10T05:01:35;15.67;;;11.47;;
6809;SDS011;3443;48.812;9.112;2024-01-10T05:04:02;15.63;;;12.00;;
6809;SDS011;3443;48.812;9.112;2024-01-10T05:06:28;17.90;;;12.10;;
6809;SDS011;3443;48.812;9.112;2024-01-10T05:08:54;18.83;;;13.27;;
6809;SDS011;3443;48.812;9.112;2024-01-10T05:11:23;13.60;;;11.73;;
6809;SDS011;3443;48.812;9.112;2024-01-10T05:13:49;15.63;;;12.47;;
6809;SDS011;3443;48.812;9.112;2024-01-10T05:16:16;15.27;;;11.03;;
6809;SDS011;3443;48.812;9.112;2024-01-10T05:18:42;15.47;;;10.57;;
6809;SDS011;3443;48.812;9.112;2024-01-10T05:21:08;14.20;;;10.77;;
6809;SDS011;3443;48.812;9.112;2024-01-10T05:23:34;16.37;;;11.97;;
6809;SDS011;3443;48.812;9.112;2024-01-10T05:26:00;13.97;;;11.40;;
6809;SDS011;3443;48.812;9.112;2024-01-10T05:28:26;16.57;;;11.40;;
6809;SDS011;3443;48.812;9.112;2024-01-10T05:30:52;15.70;;;11.30;;
6809;SDS011;3443;48.812;9.112;2024-01-10T05:33:19;15.83;;;12.20;;
6809;SDS011;3443;48.812;9.112;2024-01-10T05:35:45;16.67;;;12.43;;
6809;SDS011;3443;48.812;9.112;2024-01-10T05:38:11;15.63;;;11.67;;
6809;SDS011;3443;48.812;9.112;2024-01-10T05:40:37;18.63;;;12.63;;
6809;SDS011;3443;48.812;9.112;2024-01-10T05:43:03;14.43;;;11.80;;
6809;SDS011;3443;48.812;9.112;2024-01-10T05:45:29;15.77;;;12.00;;
6809;SDS011;3443;48.812;9.112;2024-01-10T05:47:55;14.13;;;11.60;;
6809;SDS011;3443;48.812;9.112;2024-01-10T05:50:21;14.63;;;12.17;;
6809;SDS011;3443;48.812;9.112;2024-01-10T05:52:47;15.17;;;11.53;;
6809;SDS011;3443;48.812;9.112;2024-01-10T05:55:13;16.87;;;11.90;;
6809;SDS011;3443;48.812;9.112;2024-01-10T05:57:39;15.33;;;12.33;;
6809;SDS011;3443;48.812;9.112;2024-01-10T06:00:05;15.67;;;12.53;;
6809;SDS011;3443;48.812;9.112;2024-01-10T06:02:37;19.00;;;12.73;;
6809;SDS011;3443;48.812;9.112;2024-01-10T06:05:06;14.93;;;11.17;;
6809;SDS011;3443;48.812;9.112;2024-01-10T06:07:34;14.80;;;11.53;;
6809;SDS011;3443;48.812;9.112;2024-01-10T06:10:00;17.53;;;12.60;;
6809;SDS011;3443;48.812;9.112;2024-01-10T06:12:26;17.33;;;12.70;;
6809;SDS011;3443;48.812;9.112;2024-01-10T06:14:53;18.67;;;12.97;;
6809;SDS011;3443;48.812;9.112;2024-01-10T06:17:19;15.40;;;11.90;;
6809;SDS011;3443;48.812;9.112;2024-01-10T06:19:45;16.37;;;13.00;;
6809;SDS011;3443;48.812;9.112;2024-01-10T06:22:11;14.63;;;11.43;;
6809;SDS011;3443;48.812;9.112;2024-01-10T06:24:37;14.73;;;12.13;;
6809;SDS011;3443;48.812;9.112;2024-01-10T06:27:03;16.77;;;12.90;;
6809;SDS011;3443;48.812;9.112;2024-01-10T06:29:30;19.77;;;14.50;;
6809;SDS011;3443;48.812;9.112;2024-01-10T06:31:57;19.80;;;14.83;;
6809;SDS011;3443;48.812;9.112;2024-01-10T06:34:23;17.27;;;13.17;;
6809;SDS011;3443;48.812;9.112;2024-01-10T06:36:49;18.80;;;15.17;;
6809;SDS011;3443;48.812;9.112;2024-01-10T06:39:15;18.97;;;14.83;;
6809;SDS011;3443;48.812;9.112;2024-01-10T06:41:44;18.67;;;14.33;;
6809;SDS011;3443;48.812;9.112;2024-01-10T06:44:10;22.37;;;15.30;;
6809;SDS011;3443;48.812;9.112;2024-01-10T06:46:36;16.90;;;13.87;;
6809;SDS011;3443;48.812;9.112;2024-01-10T06:49:02;15.50;;;12.63;;
6809;SDS011;3443;48.812;9.112;2024-01-10T06:51:28;18.03;;;13.57;;
6809;SDS011;3443;48.812;9.112;2024-01-10T06:53:55;19.77;;;14.73;;
6809;SDS011;3443;48.812;9.112;2024-01-10T06:56:27;16.90;;;13.23;;
6809;SDS011;3443;48.812;9.112;2024-01-10T06:58:53;17.87;;;12.80;;
6809;SDS011;3443;48.812;9.112;2024-01-10T07:01:19;19.47;;;14.13;;
6809;SDS011;3443;48.812;9.112;2024-01-10T07:03:47;16.70;;;13.53;;
6809;SDS011;3443;48.812;9.112;2024-01-10T07:06:13;17.63;;;13.23;;
6809;SDS011;3443;48.812;9.112;2024-01-10T07:08:42;15.10;;;12.87;;
6809;SDS011;3443;48.812;9.112;2024-01-10T07:11:09;14.63;;;12.80;;
6809;SDS011;3443;48.812;9.112;2024-01-10T07:13:36;15.23;;;13.03;;
6809;SDS011;3443;48.812;9.112;2024-01-10T07:16:02;20.07;;;14.27;;
6809;SDS011;3443;48.812;9.112;2024-01-10T07:18:29;17.00;;;13.50;;
6809;SDS011;3443;48.812;9.112;2024-01-10T07:20:55;17.23;;;13.40;;
6809;SDS011;3443;48.812;9.112;2024-01-10T07:23:21;20.57;;;15.53;;
6809;SDS011;3443;48.812;9.112;2024-01-10T07:25:50;21.23;;;15.77;;
6809;SDS011;3443;48.812;9.112;2024-01-10T07:28:16;17.40;;;13.90;;
6809;SDS011;3443;48.812;9.112;2024-01-10T07:30:43;19.00;;;15.30;;
6809;SDS011;3443;48.812;9.112;2024-01-10T07:33:09;18.97;;;15.27;;
6809;SDS011;3443;48.812;9.112;2024-01-10T07:35:35;20.70;;;15.53;;
6809;SDS011;3443;48.812;9.112;2024-01-10T07:38:01;19.10;;;14.40;;
6809;SDS011;3443;48.812;9.112;2024-01-10T07:40:27;19.17;;;14.60;;
6809;SDS011;3443;48.812;9.112;2024-01-10T07:42:53;21.13;;;16.07;;
6809;SDS011;3443;48.812;9.112;2024-01-10T07:45:19;17.93;;;14.47;;
6809;SDS011;3443;48.812;9.112;2024-01-10T07:47:45;20.80;;;15.10;;
6809;SDS011;3443;48.812;9.112;2024-01-10T07:50:11;17.93;;;14.63;;
6809;SDS011;3443;48.812;9.112;2024-01-10T07:52:39;17.50;;;14.63;;
6809;SDS011;3443;48.812;9.112;2024-01-10T07:55:05;20.50;;;16.13;;
6809;SDS011;3443;48.812;9.112;2024-01-10T07:57:32;20.30;;;14.40;;
6809;SDS011;3443;48.812;9.112;2024-01-10T08:00:01;21.67;;;15.10;;
6809;SDS011;3443;48.812;9.112;2024-01-10T08:02:29;17.63;;;14.33;;
6809;SDS011;3443;48.812;9.112;2024-01-10T08:04:58;19.87;;;15.07;;
6809;SDS011;3443;48.812;9.112;2024-01-10T08:07:25;21.23;;;15.83;;
6809;SDS011;3443;48.812;9.112;2024-01-10T08:09:51;20.47;;;14.30;;
6809;SDS011;3443;48.812;9.112;2024-01-10T08:12:17;21.90;;;15.70;;
6809;SDS011;3443;48.812;9.112;2024-01-10T08:14:44;20.23;;;16.50;;
6809;SDS011;3443;48.812;9.112;2024-01-10T08:17:15;23.83;;;16.93;;
6809;SDS011;3443;48.812;9.112;2024-01-10T08:19:41;24.07;;;17.50;;
6809;SDS011;3443;48.812;9.112;2024-01-10T08:22:07;22.53;;;16.50;;
6809;SDS011;3443;48.812;9.112;2024-01-10T08:24:33;25.10;;;17.00;;
6809;SDS011;3443;48.812;9.112;2024-01-10T08:26:59;22.23;;;16.37;;
6809;SDS011;3443;48.812;9.112;2024-01-10T08:29:24;23.67;;;16.90;;
6809;SDS011;3443;48.812;9.112;2024-01-10T08:31:55;22.70;;;15.50;;
6809;SDS011;3443;48.812;9.112;2024-01-10T08:34:21;20.67;;;15.43;;
6809;SDS011;3443;48.812;9.112;2024-01-10T08:36:47;21.00;;;16.20;;
6809;SDS011;3443;48.812;9.112;2024-01-10T08:39:15;20.73;;;15.73;;
6809;SDS011;3443;48.812;9.112;2024-01-10T08:41:41;29.47;;;20.93;;
6809;SDS011;3443;48.812;9.112;2024-01-10T08:44:09;19.07;;;14.87;;
6809;SDS011;3443;48.812;9.112;2024-01-10T08:46:35;37.13;;;25.80;;
6809;SDS011;3443;48.812;9.112;2024-01-10T08:49:01;23.40;;;17.00;;
6809;SDS011;3443;48.812;9.112;2024-01-10T08:51:26;24.43;;;15.03;;
6809;SDS011;3443;48.812;9.112;2024-01-10T08:53:52;21.47;;;15.13;;
6809;SDS011;3443;48.812;9.112;2024-01-10T08:56:18;20.20;;;14.93;;
6809;SDS011;3443;48.812;9.112;2024-01-10T08:58:45;19.80;;;14.93;;
6809;SDS011;3443;48.812;9.112;2024-01-10T09:01:10;20.20;;;14.83;;
6809;SDS011;3443;48.812;9.112;2024-01-10T09:03:36;21.67;;;16.10;;
6809;SDS011;3443;48.812;9.112;2024-01-10T09:06:02;24.97;;;16.60;;
6809;SDS011;3443;48.812;9.112;2024-01-10T09:08:29;24.33;;;17.97;;
6809;SDS011;3443;48.812;9.112;2024-01-10T09:10:55;22.30;;;16.77;;
6809;SDS011;3443;48.812;9.112;2024-01-10T09:13:20;22.33;;;16.03;;
6809;SDS011;3443;48.812;9.112;2024-01-10T09:15:46;23.10;;;15.93;;
6809;SDS011;3443;48.812;9.112;2024-01-10T09:18:11;25.60;;;16.23;;
6809;SDS011;3443;48.812;9.112;2024-01-10T09:20:37;24.93;;;16.30;;
6809;SDS011;3443;48.812;9.112;2024-01-10T09:23:03;20.87;;;16.53;;
6809;SDS011;3443;48.812;9.112;2024-01-10T09:25:29;22.20;;;16.40;;
6809;SDS011;3443;48.812;9.112;2024-01-10T09:27:54;24.43;;;17.93;;
6809;SDS011;3443;48.812;9.112;2024-01-10T09:30:20;21.17;;;17.10;;
6809;SDS011;3443;48.812;9.112;2024-01-10T09:32:46;24.60;;;17.47;;
6809;SDS011;3443;48.812;9.112;2024-01-10T09:35:12;21.30;;;16.40;;
6809;SDS011;3443;48.812;9.112;2024-01-10T09:37:38;21.33;;;16.97;;
6809;SDS011;3443;48.812;9.112;2024-01-10T09:40:04;24.00;;;17.73;;
6809;SDS011;3443;48.812;9.112;2024-01-10T09:42:34;23.87;;;18.07;;
6809;SDS011;3443;48.812;9.112;2024-01-10T09:45:03;22.23;;;17.40;;
6809;SDS011;3443;48.812;9.112;2024-01-10T09:47:30;22.23;;;18.07;;
6809;SDS011;3443;48.812;9.112;2024-01-10T09:49:57;24.70;;;18.40;;
6809;SDS011;3443;48.812;9.112;2024-01-10T09:52:26;19.70;;;16.97;;
6809;SDS011;3443;48.812;9.112;2024-01-10T09:54:53;22.77;;;18.30;;
6809;SDS011;3443;48.812;9.112;2024-01-10T09:57:21;25.90;;;19.50;;
6809;SDS011;3443;48.812;9.112;2024-01-10T09:59:50;23.83;;;18.73;;
6809;SDS011;3443;48.812;9.112;2024-01-10T10:02:17;23.87;;;18.27;;
6809;SDS011;3443;48.812;9.112;2024-01-10T10:05:13;27.13;;;19.00;;
6809;SDS011;3443;48.812;9.112;2024-01-10T10:10:14;26.03;;;19.67;;
6809;SDS011;3443;48.812;9.112;2024-01-10T10:12:44;22.67;;;17.73;;
6809;SDS011;3443;48.812;9.112;2024-01-10T10:15:12;24.20;;;19.27;;
6809;SDS011;3443;48.812;9.112;2024-01-10T10:17:43;26.83;;;19.57;;
6809;SDS011;3443;48.812;9.112;2024-01-10T10:20:20;26.07;;;19.73;;
6809;SDS011;3443;48.812;9.112;2024-01-10T10:23:06;24.47;;;18.03;;
6809;SDS011;3443;48.812;9.112;2024-01-10T10:25:45;22.27;;;18.83;;
6809;SDS011;3443;48.812;9.112;2024-01-10T10:28:12;22.17;;;17.70;;
6809;SDS011;3443;48.812;9.112;2024-01-10T10:30:38;23.03;;;18.70;;
6809;SDS011;3443;48.812;9.112;2024-01-10T10:33:03;24.03;;;18.90;;
6809;SDS011;3443;48.812;9.112;2024-01-10T10:35:33;24.80;;;18.80;;
6809;SDS011;3443;48.812;9.112;2024-01-10T10:37:59;25.93;;;20.10;;
6809;SDS011;3443;48.812;9.112;2024-01-10T10:40:25;25.60;;;19.50;;
6809;SDS011;3443;48.812;9.112;2024-01-10T10:42:56;23.53;;;18.40;;
6809;SDS011;3443;48.812;9.112;2024-01-10T10:45:22;26.57;;;18.97;;
6809;SDS011;3443;48.812;9.112;2024-01-10T10:47:52;23.47;;;19.10;;
6809;SDS011;3443;48.812;9.112;2024-01-10T10:50:33;26.13;;;19.00;;
6809;SDS011;3443;48.812;9.112;2024-01-10T10:52:59;24.50;;;19.40;;
6809;SDS011;3443;48.812;9.112;2024-01-10T10:55:27;26.50;;;19.40;;
6809;SDS011;3443;48.812;9.112;2024-01-10T10:57:55;25.10;;;18.87;;
6809;SDS011;3443;48.812;9.112;2024-01-10T11:00:21;21.80;;;18.47;;
6809;SDS011;3443;48.812;9.112;2024-01-10T11:02:52;25.27;;;18.70;;
6809;SDS011;3443;48.812;9.112;2024-01-10T11:05:22;25.57;;;19.10;;
6809;SDS011;3443;48.812;9.112;2024-01-10T11:07:49;27.63;;;20.03;;
6809;SDS011;3443;48.812;9.112;2024-01-10T11:10:18;26.90;;;19.80;;
6809;SDS011;3443;48.812;9.112;2024-01-10T11:15:54;24.13;;;19.13;;
6809;SDS011;3443;48.812;9.112;2024-01-10T11:21:22;28.20;;;20.23;;
6809;SDS011;3443;48.812;9.112;2024-01-10T11:24:01;27.03;;;20.40;;
6809;SDS011;3443;48.812;9.112;2024-01-10T11:26:28;25.53;;;19.57;;
6809;SDS011;3443;48.812;9.112;2024-01-10T11:28:54;25.23;;;19.67;;
6809;SDS011;3443;48.812;9.112;2024-01-10T11:31:28;27.17;;;20.73;;
6809;SDS011;3443;48.812;9.112;2024-01-10T11:34:01;23.50;;;19.20;;
6809;SDS011;3443;48.812;9.112;2024-01-10T11:36:30;27.67;;;20.60;;
6809;SDS011;3443;48.812;9.112;2024-01-10T11:39:00;25.43;;;20.30;;
6809;SDS011;3443;48.812;9.112;2024-01-10T11:41:30;26.83;;;21.53;;
6809;SDS011;3443;48.812;9.112;2024-01-10T11:46:40;26.97;;;21.07;;
6809;SDS011;3443;48.812;9.112;2024-01-10T11:49:07;26.03;;;20.57;;
6809;SDS011;3443;48.812;9.112;2024-01-10T11:51:37;27.47;;;21.03;;
6809;SDS011;3443;48.812;9.112;2024-01-10T11:54:03;25.10;;;20.27;;
6809;SDS011;3443;48.812;9.112;2024-01-10T11:56:39;29.00;;;22.17;;
6809;SDS011;3443;48.812;9.112;2024-01-10T12:01:39;26.37;;;19.73;;
6809;SDS011;3443;48.812;9.112;2024-01-10T12:04:06;28.00;;;21.77;;
6809;SDS011;3443;48.812;9.112;2024-01-10T12:06:36;30.00;;;20.73;;
6809;SDS011;3443;48.812;9.112;2024-01-10T12:09:02;29.27;;;21.20;;
6809;SDS011;3443;48.812;9.112;2024-01-10T12:11:36;27.87;;;21.73;;
6809;SDS011;3443;48.812;9.112;2024-01-10T12:14:06;29.00;;;21.87;;
6809;SDS011;3443;48.812;9.112;2024-01-10T12:16:33;31.87;;;22.70;;
6809;SDS011;3443;48.812;9.112;2024-01-10T12:18:59;31.07;;;21.10;;
6809;SDS011;3443;48.812;9.112;2024-01-10T12:21:24;31.60;;;20.37;;
6809;SDS011;3443;48.812;9.112;2024-01-10T12:23:50;27.90;;;20.80;;
6809;SDS011;3443;48.812;9.112;2024-01-10T12:26:18;28.27;;;21.60;;
6809;SDS011;3443;48.812;9.112;2024-01-10T12:28:54;29.40;;;22.43;;
6809;SDS011;3443;48.812;9.112;2024-01-10T12:31:21;29.07;;;21.63;;
6809;SDS011;3443;48.812;9.112;2024-01-10T12:33:50;28.33;;;20.53;;
6809;SDS011;3443;48.812;9.112;2024-01-10T12:36:16;29.13;;;21.77;;
6809;SDS011;3443;48.812;9.112;2024-01-10T12:38:43;30.13;;;20.50;;
6809;SDS011;3443;48.812;9.112;2024-01-10T12:41:09;31.10;;;22.30;;
6809;SDS011;3443;48.812;9.112;2024-01-10T12:43:36;31.03;;;21.63;;
6809;SDS011;3443;48.812;9.112;2024-01-10T12:48:40;26.90;;;21.93;;
6809;SDS011;3443;48.812;9.112;2024-01-10T12:51:07;29.63;;;22.40;;
6809;SDS011;3443;48.812;9.112;2024-01-10T12:53:42;30.47;;;21.83;;
6809;SDS011;3443;48.812;9.112;2024-01-10T12:56:09;31.77;;;23.37;;
6809;SDS011;3443;48.812;9.112;2024-01-10T12:58:39;32.10;;;22.17;;
6809;SDS011;3443;48.812;9.112;2024-01-10T13:01:06;28.80;;;21.83;;
6809;SDS011;3443;48.812;9.112;2024-01-10T13:03:33;30.57;;;22.27;;
6809;SDS011;3443;48.812;9.112;2024-01-10T13:05:59;33.30;;;22.90;;
6809;SDS011;3443;48.812;9.112;2024-01-10T13:08:25;27.67;;;20.53;;
6809;SDS011;3443;48.812;9.112;2024-01-10T13:10:51;31.37;;;21.87;;
6809;SDS011;3443;48.812;9.112;2024-01-10T13:13:16;28.40;;;21.70;;
6809;SDS011;3443;48.812;9.112;2024-01-10T13:15:44;32.50;;;23.30;;
6809;SDS011;3443;48.812;9.112;2024-01-10T13:18:10;31.60;;;21.97;;
6809;SDS011;3443;48.812;9.112;2024-01-10T13:20:36;28.37;;;21.17;;
6809;SDS011;3443;48.812;9.112;2024-01-10T13:23:03;33.40;;;21.40;;
6809;SDS011;3443;48.812;9.112;2024-01-10T13:25:29;31.03;;;22.70;;
6809;SDS011;3443;48.812;9.112;2024-01-10T13:27:54;31.83;;;22.40;;
6809;SDS011;3443;48.812;9.112;2024-01-10T13:30:20;30.23;;;22.33;;
6809;SDS011;3443;48.812;9.112;2024-01-10T13:32:45;30.77;;;23.33;;
6809;SDS011;3443;48.812;9.112;2024-01-10T13:35:14;30.13;;;22.03;;
6809;SDS011;3443;48.812;9.112;2024-01-10T13:37:41;32.70;;;23.53;;
6809;SDS011;3443;48.812;9.112;2024-01-10T13:40:09;33.37;;;23.30;;
6809;SDS011;3443;48.812;9.112;2024-01-10T13:42:37;29.30;;;21.80;;
6809;SDS011;3443;48.812;9.112;2024-01-10T13:45:07;30.80;;;22.73;;
6809;SDS011;3443;48.812;9.112;2024-01-10T13:47:36;30.87;;;22.27;;
6809;SDS011;3443;48.812;9.112;2024-01-10T13:50:03;29.30;;;21.17;;
6809;SDS011;3443;48.812;9.112;2024-01-10T13:52:30;29.07;;;21.77;;
6809;SDS011;3443;48.812;9.112;2024-01-10T13:55:00;27.13;;;20.63;;
6809;SDS011;3443;48.812;9.112;2024-01-10T13:57:26;25.70;;;20.47;;
6809;SDS011;3443;48.812;9.112;2024-01-10T13:59:52;27.07;;;20.87;;
6809;SDS011;3443;48.812;9.112;2024-01-10T14:02:20;27.73;;;20.53;;
6809;SDS011;3443;48.812;9.112;2024-01-10T14:04:47;29.43;;;21.13;;
6809;SDS011;3443;48.812;9.112;2024-01-10T14:07:12;29.07;;;19.90;;
6809;SDS011;3443;48.812;9.112;2024-01-10T14:09:38;26.23;;;20.70;;
6809;SDS011;3443;48.812;9.112;2024-01-10T14:12:03;26.20;;;19.33;;
6809;SDS011;3443;48.812;9.112;2024-01-10T14:14:29;27.27;;;20.77;;
6809;SDS011;3443;48.812;9.112;2024-01-10T14:16:57;28.63;;;21.87;;
6809;SDS011;3443;48.812;9.112;2024-01-10T14:19:22;28.47;;;21.43;;
6809;SDS011;3443;48.812;9.112;2024-01-10T14:21:48;31.43;;;21.73;;
6809;SDS011;3443;48.812;9.112;2024-01-10T14:24:14;32.37;;;22.23;;
6809;SDS011;3443;48.812;9.112;2024-01-10T14:26:39;31.67;;;21.20;;
6809;SDS011;3443;48.812;9.112;2024-01-10T14:29:05;29.80;;;22.63;;
6809;SDS011;3443;48.812;9.112;2024-01-10T14:31:30;31.10;;;22.27;;
6809;SDS011;3443;48.812;9.112;2024-01-10T14:33:56;31.03;;;23.17;;
6809;SDS011;3443;48.812;9.112;2024-01-10T14:36:22;33.63;;;23.27;;
6809;SDS011;3443;48.812;9.112;2024-01-10T14:38:48;31.80;;;23.83;;
6809;SDS011;3443;48.812;9.112;2024-01-10T14:41:13;28.73;;;23.10;;
6809;SDS011;3443;48.812;9.112;2024-01-10T14:43:39;34.53;;;24.63;;
6809;SDS011;3443;48.812;9.112;2024-01-10T14:46:05;31.13;;;24.67;;
6809;SDS011;3443;48.812;9.112;2024-01-10T14:48:31;31.23;;;23.87;;
6809;SDS011;3443;48.812;9.112;2024-01-10T14:50:58;29.93;;;24.10;;
6809;SDS011;3443;48.812;9.112;2024-01-10T14:53:25;34.10;;;23.70;;
6809;SDS011;3443;48.812;9.112;2024-01-10T14:55:50;33.33;;;23.67;;
6809;SDS011;3443;48.812;9.112;2024-01-10T14:58:17;33.23;;;25.03;;
6809;SDS011;3443;48.812;9.112;2024-01-10T15:00:43;32.50;;;23.70;;
6809;SDS011;3443;48.812;9.112;2024-01-10T15:03:09;33.00;;;24.27;;